createdAt,value
2022-07-25T00:01:52.548Z,6.27
2022-07-25T00:04:19.772Z,6.70
2022-07-25T00:06:46.660Z,6.57
2022-07-25T00:09:13.646Z,6.43
2022-07-25T00:11:40.494Z,6.70
2022-07-25T00:14:08.073Z,6.87
2022-07-25T00:16:35.079Z,5.93
2022-07-25T00:19:02.219Z,7.70
2022-07-25T00:21:29.034Z,7.07
2022-07-25T00:23:55.868Z,6.20
2022-07-25T00:26:22.670Z,6.80
2022-07-25T00:28:49.525Z,7.87
2022-07-25T00:31:16.730Z,6.37
2022-07-25T00:33:43.647Z,6.03
2022-07-25T00:36:10.767Z,6.17
2022-07-25T00:38:37.665Z,6.43
2022-07-25T00:41:05.025Z,6.80
2022-07-25T00:43:32.052Z,6.67
2022-07-25T00:45:59.998Z,7.40
2022-07-25T00:48:28.274Z,7.17
2022-07-25T00:50:56.399Z,7.27
2022-07-25T00:53:23.901Z,6.20
2022-07-25T00:55:51.364Z,6.80
2022-07-25T00:58:18.906Z,6.80
2022-07-25T01:00:45.945Z,6.77
2022-07-25T01:03:13.419Z,6.77
2022-07-25T01:05:40.583Z,6.90
2022-07-25T01:08:08.233Z,6.60
2022-07-25T01:10:35.566Z,6.67
2022-07-25T01:13:02.336Z,6.97
2022-07-25T01:15:29.206Z,7.10
2022-07-25T01:17:56.115Z,6.43
2022-07-25T01:20:24.785Z,8.03
2022-07-25T01:22:52.056Z,6.97
2022-07-25T01:25:19.716Z,7.20
2022-07-25T01:27:51.370Z,7.10
2022-07-25T01:30:22.477Z,6.40
2022-07-25T01:32:49.269Z,7.30
2022-07-25T01:35:16.405Z,6.40
2022-07-25T01:37:45.918Z,6.77
2022-07-25T01:40:14.585Z,6.50
2022-07-25T01:42:42.362Z,6.67
2022-07-25T01:45:10.091Z,7.97
2022-07-25T01:47:36.894Z,7.30
2022-07-25T01:50:05.238Z,6.70
2022-07-25T01:52:32.043Z,7.30
2022-07-25T01:54:58.990Z,6.43
2022-07-25T01:57:30.797Z,6.07
2022-07-25T01:59:58.681Z,6.77
2022-07-25T02:02:25.613Z,6.40
2022-07-25T02:04:52.581Z,6.57
2022-07-25T02:07:19.608Z,6.83
2022-07-25T02:09:46.405Z,7.43
2022-07-25T02:12:13.152Z,7.70
2022-07-25T02:14:40.037Z,7.03
2022-07-25T02:17:06.903Z,7.83
2022-07-25T02:19:34.327Z,6.50
2022-07-25T02:22:01.105Z,6.30
2022-07-25T02:24:27.950Z,7.67
2022-07-25T02:26:54.732Z,7.47
2022-07-25T02:29:21.862Z,7.33
2022-07-25T02:31:49.045Z,7.57
2022-07-25T02:34:15.790Z,6.50
2022-07-25T02:36:42.609Z,7.10
2022-07-25T02:39:09.385Z,7.80
2022-07-25T02:41:36.232Z,6.83
2022-07-25T02:44:03.166Z,7.40
2022-07-25T02:46:30.314Z,6.97
2022-07-25T02:48:57.281Z,7.30
2022-07-25T02:51:24.073Z,6.90
2022-07-25T02:53:59.297Z,8.60
2022-07-25T02:56:30.079Z,7.47
2022-07-25T02:58:59.144Z,7.93
2022-07-25T03:01:26.027Z,7.50
2022-07-25T03:03:52.828Z,7.10
2022-07-25T03:06:19.578Z,8.43
2022-07-25T03:08:46.353Z,7.80
2022-07-25T03:11:14.208Z,7.70
2022-07-25T03:13:41.023Z,6.83
2022-07-25T03:16:08.340Z,6.67
2022-07-25T03:18:35.190Z,7.47
2022-07-25T03:21:01.950Z,7.27
2022-07-25T03:23:29.891Z,6.83
2022-07-25T03:25:57.267Z,7.70
2022-07-25T03:28:24.776Z,7.43
2022-07-25T03:30:52.734Z,7.50
2022-07-25T03:33:19.882Z,7.67
2022-07-25T03:35:46.876Z,8.93
2022-07-25T03:38:13.828Z,6.80
2022-07-25T03:40:40.643Z,7.10
2022-07-25T03:43:07.445Z,8.17
2022-07-25T03:45:34.518Z,7.50
2022-07-25T03:48:01.444Z,8.00
2022-07-25T03:50:28.299Z,7.57
2022-07-25T03:52:55.084Z,7.10
2022-07-25T03:55:21.885Z,7.70
2022-07-25T03:57:48.596Z,7.50
2022-07-25T04:00:15.517Z,7.20
2022-07-25T04:02:42.372Z,7.60
2022-07-25T04:05:10.046Z,8.17
2022-07-25T04:07:37.532Z,7.70
2022-07-25T04:10:06.165Z,8.00
2022-07-25T04:12:33.132Z,9.30
2022-07-25T04:15:00.090Z,8.43
2022-07-25T04:17:26.873Z,8.23
2022-07-25T04:19:53.735Z,7.63
2022-07-25T04:22:20.561Z,7.80
2022-07-25T04:24:47.278Z,7.33
2022-07-25T04:27:14.241Z,8.43
2022-07-25T04:29:41.007Z,11.90
2022-07-25T04:32:07.929Z,25.67
2022-07-25T04:34:34.733Z,14.13
2022-07-25T04:37:01.515Z,9.27
2022-07-25T04:39:28.244Z,8.23
2022-07-25T04:41:54.942Z,7.13
2022-07-25T04:44:21.682Z,7.80
2022-07-25T04:46:48.388Z,8.27
2022-07-25T04:49:15.251Z,8.10
2022-07-25T04:51:42.328Z,8.37
2022-07-25T04:54:09.698Z,7.10
2022-07-25T04:56:36.857Z,7.57
2022-07-25T04:59:06.738Z,8.17
2022-07-25T05:01:34.490Z,7.90
2022-07-25T05:04:01.393Z,7.70
2022-07-25T05:06:28.244Z,6.77
2022-07-25T05:08:55.442Z,8.70
2022-07-25T05:11:22.251Z,8.10
2022-07-25T05:13:48.987Z,7.70
2022-07-25T05:16:15.949Z,8.53
2022-07-25T05:18:42.833Z,11.83
2022-07-25T05:21:12.949Z,7.87
2022-07-25T05:23:41.119Z,7.07
2022-07-25T05:26:07.898Z,8.63
2022-07-25T05:28:34.659Z,8.53
2022-07-25T05:31:01.435Z,7.77
2022-07-25T05:33:28.258Z,8.50
2022-07-25T05:35:55.026Z,8.43
2022-07-25T05:38:21.822Z,8.53
2022-07-25T05:40:49.072Z,7.30
2022-07-25T05:43:15.851Z,7.37
2022-07-25T05:45:42.645Z,6.93
2022-07-25T05:48:09.464Z,9.50
2022-07-25T05:50:39.451Z,10.53
2022-07-25T05:53:06.543Z,10.00
2022-07-25T05:55:33.303Z,8.53
2022-07-25T05:58:00.263Z,7.67
2022-07-25T06:00:29.327Z,8.57
2022-07-25T06:03:00.311Z,9.30
2022-07-25T06:05:27.643Z,14.00
2022-07-25T06:07:54.403Z,9.20
2022-07-25T06:10:21.586Z,11.10
2022-07-25T06:12:48.568Z,9.10
2022-07-25T06:15:22.284Z,15.70
2022-07-25T06:17:50.110Z,20.10
2022-07-25T06:20:16.913Z,7.63
2022-07-25T06:22:43.789Z,7.67
2022-07-25T06:25:10.959Z,6.90
2022-07-25T06:27:38.924Z,10.30
2022-07-25T06:30:18.622Z,7.83
2022-07-25T06:32:47.204Z,7.57
2022-07-25T06:35:14.009Z,6.93
2022-07-25T06:37:40.800Z,6.77
2022-07-25T06:40:08.454Z,6.53
2022-07-25T06:42:40.006Z,5.93
2022-07-25T06:45:09.654Z,6.10
2022-07-25T06:47:37.586Z,7.00
2022-07-25T06:50:05.975Z,7.30
2022-07-25T06:52:34.787Z,7.80
2022-07-25T06:55:02.355Z,5.90
2022-07-25T06:57:29.146Z,6.17
2022-07-25T06:59:55.937Z,6.60
2022-07-25T07:02:22.713Z,6.37
2022-07-25T07:04:49.781Z,6.40
2022-07-25T07:07:16.769Z,6.80
2022-07-25T07:09:44.083Z,6.70
2022-07-25T07:12:11.227Z,7.70
2022-07-25T07:14:38.470Z,5.67
2022-07-25T07:17:05.780Z,5.20
2022-07-25T07:19:32.791Z,6.45
2022-07-25T07:22:00.056Z,6.15
2022-07-25T07:24:26.897Z,5.88
2022-07-25T07:26:55.089Z,4.63
2022-07-25T07:29:21.937Z,4.47
2022-07-25T07:31:48.845Z,4.88
2022-07-25T07:34:16.421Z,5.30
2022-07-25T07:36:43.656Z,6.10
2022-07-25T07:39:11.557Z,4.90
2022-07-25T07:41:38.772Z,5.68
2022-07-25T07:44:05.807Z,4.43
2022-07-25T07:46:32.666Z,5.97
2022-07-25T07:48:59.543Z,4.43
2022-07-25T07:51:26.376Z,4.45
2022-07-25T07:54:11.656Z,6.65
2022-07-25T07:56:39.392Z,5.32
2022-07-25T07:59:06.666Z,4.00
2022-07-25T08:01:34.474Z,5.30
2022-07-25T08:04:01.229Z,4.10
2022-07-25T08:06:28.007Z,3.80
2022-07-25T08:08:55.219Z,6.43
2022-07-25T08:11:22.463Z,3.20
2022-07-25T08:13:49.821Z,3.55
2022-07-25T08:16:16.594Z,3.28
2022-07-25T08:18:43.397Z,8.43
2022-07-25T08:21:10.837Z,4.68
2022-07-25T08:23:40.587Z,3.50
2022-07-25T08:26:07.783Z,3.58
2022-07-25T08:28:34.634Z,6.18
2022-07-25T08:31:01.689Z,3.05
2022-07-25T08:33:28.692Z,3.40
2022-07-25T08:35:58.538Z,3.38
2022-07-25T08:38:27.011Z,3.40
2022-07-25T08:40:55.637Z,3.42
2022-07-25T08:43:22.447Z,3.20
2022-07-25T08:45:51.061Z,3.90
2022-07-25T08:48:23.004Z,3.83
2022-07-25T08:50:51.197Z,3.30
2022-07-25T08:53:36.079Z,3.30
2022-07-25T08:56:14.850Z,3.95
2022-07-25T08:58:44.566Z,3.40
2022-07-25T09:01:13.034Z,3.40
2022-07-25T09:03:40.402Z,3.30
2022-07-25T09:06:17.308Z,2.97
2022-07-25T09:08:59.440Z,3.40
2022-07-25T09:11:28.032Z,5.13
2022-07-25T09:14:10.343Z,3.80
2022-07-25T09:16:44.409Z,3.40
2022-07-25T09:19:16.141Z,5.07
2022-07-25T09:21:45.703Z,4.15
2022-07-25T09:24:18.696Z,4.80
2022-07-25T09:26:50.848Z,4.55
2022-07-25T09:29:27.958Z,4.90
2022-07-25T09:31:56.918Z,4.00
2022-07-25T09:34:38.456Z,4.30
2022-07-25T09:37:12.525Z,4.40
2022-07-25T09:39:48.286Z,4.47
2022-07-25T09:42:20.138Z,4.30
2022-07-25T09:44:59.257Z,5.20
2022-07-25T09:47:26.019Z,5.03
2022-07-25T09:49:53.483Z,4.72
2022-07-25T09:52:20.306Z,4.88
2022-07-25T09:54:47.363Z,4.60
2022-07-25T09:57:17.054Z,5.10
2022-07-25T09:59:49.341Z,5.38
2022-07-25T10:02:41.823Z,5.35
2022-07-25T10:05:26.699Z,4.80
2022-07-25T10:07:55.307Z,5.22
2022-07-25T10:10:30.514Z,5.72
2022-07-25T10:13:10.699Z,8.02
2022-07-25T10:15:41.802Z,6.30
2022-07-25T10:18:08.732Z,5.32
2022-07-25T10:20:36.165Z,5.40
2022-07-25T10:23:03.326Z,4.75
2022-07-25T10:25:30.497Z,5.07
2022-07-25T10:28:10.034Z,5.22
2022-07-25T10:30:38.776Z,9.02
2022-07-25T10:33:15.593Z,5.82
2022-07-25T10:35:42.991Z,5.18
2022-07-25T10:38:10.092Z,4.80
2022-07-25T10:40:41.173Z,5.28
2022-07-25T10:43:14.249Z,5.43
2022-07-25T10:46:02.315Z,5.00
2022-07-25T10:48:30.879Z,6.37
2022-07-25T10:51:04.090Z,6.37
2022-07-25T10:53:33.669Z,4.97
2022-07-25T10:56:13.485Z,5.07
2022-07-25T10:58:51.468Z,5.00
2022-07-25T11:01:28.368Z,5.90
2022-07-25T11:03:57.528Z,5.57
2022-07-25T11:06:35.241Z,5.67
2022-07-25T11:09:27.231Z,6.13
2022-07-25T11:11:59.280Z,6.73
2022-07-25T11:14:32.726Z,8.13
2022-07-25T11:17:20.536Z,5.97
2022-07-25T11:20:21.003Z,6.20
2022-07-25T11:22:55.495Z,6.80
2022-07-25T11:25:23.365Z,6.20
2022-07-25T11:28:00.822Z,6.53
2022-07-25T11:30:31.098Z,5.93
2022-07-25T11:33:01.393Z,6.43
2022-07-25T11:35:33.018Z,5.90
2022-07-25T11:38:02.307Z,6.40
2022-07-25T11:40:31.458Z,6.20
2022-07-25T11:42:59.668Z,6.70
2022-07-25T11:45:29.590Z,7.20
2022-07-25T11:48:08.039Z,8.30
2022-07-25T11:50:41.021Z,9.00
2022-07-25T11:53:11.251Z,6.80
2022-07-25T11:55:40.972Z,6.60
2022-07-25T11:58:08.677Z,7.47
2022-07-25T12:00:39.938Z,6.77
2022-07-25T12:03:18.688Z,7.10
2022-07-25T12:05:47.338Z,5.93
2022-07-25T12:08:18.405Z,6.93
2022-07-25T12:10:47.657Z,7.17
2022-07-25T12:13:30.493Z,7.03
2022-07-25T12:16:00.433Z,7.47
2022-07-25T12:18:28.130Z,6.50
2022-07-25T12:20:54.955Z,6.30
2022-07-25T12:23:22.160Z,6.87
2022-07-25T12:25:49.597Z,6.63
2022-07-25T12:28:16.914Z,6.77
2022-07-25T12:30:45.208Z,6.90
2022-07-25T12:33:13.061Z,7.10
2022-07-25T12:35:44.291Z,6.03
2022-07-25T12:38:11.429Z,6.50
2022-07-25T12:40:38.283Z,13.70
2022-07-25T12:43:05.181Z,7.50
2022-07-25T12:45:31.963Z,6.67
2022-07-25T12:47:58.747Z,7.40
2022-07-25T12:50:26.076Z,6.67
2022-07-25T12:52:53.463Z,7.43
2022-07-25T12:55:21.505Z,7.47
2022-07-25T12:57:48.958Z,7.77
2022-07-25T13:00:18.525Z,7.50
2022-07-25T13:02:45.459Z,7.27
2022-07-25T13:05:12.478Z,7.37
2022-07-25T13:07:39.339Z,6.43
2022-07-25T13:10:07.004Z,6.70
2022-07-25T13:12:33.944Z,8.00
2022-07-25T13:15:01.620Z,7.17
2022-07-25T13:17:28.538Z,7.50
2022-07-25T13:19:56.506Z,6.83
2022-07-25T13:22:24.455Z,7.43
2022-07-25T13:24:51.514Z,7.93
2022-07-25T13:27:19.483Z,8.40
2022-07-25T13:29:47.094Z,8.00
2022-07-25T13:32:14.268Z,7.80
2022-07-25T13:34:41.087Z,7.53
2022-07-25T13:37:07.862Z,7.50
2022-07-25T13:39:35.721Z,7.70
2022-07-25T13:42:03.224Z,8.20
2022-07-25T13:44:30.198Z,8.43
2022-07-25T13:46:58.602Z,7.50
2022-07-25T13:49:25.693Z,7.70
2022-07-25T13:51:52.459Z,6.97
2022-07-25T13:54:19.212Z,8.43
2022-07-25T13:56:45.928Z,7.90
2022-07-25T13:59:18.823Z,7.40
2022-07-25T14:01:48.061Z,8.63
2022-07-25T14:04:14.891Z,7.90
2022-07-25T14:06:42.107Z,8.27
2022-07-25T14:09:09.506Z,8.70
2022-07-25T14:11:36.664Z,8.07
2022-07-25T14:14:03.488Z,8.50
2022-07-25T14:16:30.581Z,8.37
2022-07-25T14:18:57.459Z,7.43
2022-07-25T14:21:24.372Z,7.87
2022-07-25T14:23:52.368Z,22.80
2022-07-25T14:26:19.199Z,96.40
2022-07-25T14:28:46.277Z,62.73
2022-07-25T14:31:13.095Z,71.50
2022-07-25T14:33:40.564Z,55.97
2022-07-25T14:36:08.438Z,38.77
2022-07-25T14:38:35.688Z,14.30
2022-07-25T14:41:04.328Z,21.63
2022-07-25T14:43:33.453Z,8.67
2022-07-25T14:46:00.257Z,13.03
2022-07-25T14:48:27.069Z,14.90
2022-07-25T14:50:54.675Z,8.53
2022-07-25T14:53:21.455Z,8.53
2022-07-25T14:55:48.191Z,8.73
2022-07-25T14:58:15.680Z,9.10
2022-07-25T15:00:43.589Z,8.73
2022-07-25T15:03:10.525Z,7.77
2022-07-25T15:05:38.611Z,8.30
2022-07-25T15:08:06.581Z,8.17
2022-07-25T15:10:33.749Z,8.90
2022-07-25T15:13:28.279Z,8.10
2022-07-25T15:15:47.878Z,8.30
2022-07-25T15:18:14.851Z,7.77
2022-07-25T15:20:41.734Z,8.63
2022-07-25T15:23:08.477Z,8.40
2022-07-25T15:26:00.644Z,9.37
2022-07-25T15:28:22.107Z,8.60
2022-07-25T15:30:50.400Z,7.43
2022-07-25T15:33:20.310Z,9.30
2022-07-25T15:35:48.338Z,10.50
2022-07-25T15:38:16.146Z,7.93
2022-07-25T15:40:43.708Z,8.87
2022-07-25T15:43:11.072Z,8.57
2022-07-25T15:45:39.573Z,8.37
2022-07-25T15:48:10.601Z,9.50
2022-07-25T15:50:43.619Z,8.43
2022-07-25T15:53:10.793Z,8.77
2022-07-25T15:55:39.491Z,8.63
2022-07-25T15:58:07.001Z,9.30
2022-07-25T16:00:34.042Z,9.37
2022-07-25T16:03:00.974Z,9.17
2022-07-25T16:05:28.307Z,8.90
2022-07-25T16:07:55.508Z,8.53
2022-07-25T16:10:22.844Z,9.53
2022-07-25T16:12:49.576Z,9.50
2022-07-25T16:15:16.370Z,8.60
2022-07-25T16:17:43.101Z,8.97
2022-07-25T16:20:11.155Z,9.97
2022-07-25T16:22:39.356Z,8.73
2022-07-25T16:25:06.932Z,9.47
2022-07-25T16:27:33.661Z,9.33
2022-07-25T16:30:01.130Z,9.77
2022-07-25T16:32:27.920Z,9.27
2022-07-25T16:34:54.650Z,10.07
2022-07-25T16:37:21.511Z,9.00
2022-07-25T16:39:48.272Z,10.20
2022-07-25T16:42:15.206Z,8.63
2022-07-25T16:44:42.318Z,10.93
2022-07-25T16:47:09.305Z,8.60
2022-07-25T16:49:36.120Z,10.00
2022-07-25T16:52:02.939Z,9.60
2022-07-25T16:54:29.802Z,9.50
2022-07-25T16:56:59.625Z,9.90
2022-07-25T16:59:26.926Z,8.83
2022-07-25T17:01:54.106Z,10.03
2022-07-25T17:04:21.059Z,9.67
2022-07-25T17:06:48.268Z,9.00
2022-07-25T17:09:15.237Z,10.33
2022-07-25T17:11:41.979Z,9.80
2022-07-25T17:14:08.837Z,10.00
2022-07-25T17:16:35.654Z,11.40
2022-07-25T17:19:03.265Z,9.03
2022-07-25T17:21:30.033Z,10.50
2022-07-25T17:23:56.909Z,10.70
2022-07-25T17:26:23.892Z,9.93
2022-07-25T17:28:50.725Z,10.20
2022-07-25T17:31:17.586Z,10.53
2022-07-25T17:33:44.406Z,11.23
2022-07-25T17:36:11.482Z,9.67
2022-07-25T17:38:38.411Z,10.33
2022-07-25T17:41:05.445Z,11.07
2022-07-25T17:43:32.297Z,9.60
2022-07-25T17:45:59.069Z,9.87
2022-07-25T17:48:26.192Z,11.13
2022-07-25T17:50:52.991Z,14.37
2022-07-25T17:53:19.779Z,9.93
2022-07-25T17:55:46.685Z,11.13
2022-07-25T17:58:13.581Z,13.80
2022-07-25T18:00:40.472Z,11.03
2022-07-25T18:03:07.507Z,10.70
2022-07-25T18:05:34.837Z,10.97
2022-07-25T18:08:03.066Z,10.17
2022-07-25T18:10:30.169Z,11.00
2022-07-25T18:12:57.103Z,10.70
2022-07-25T18:15:24.212Z,12.23
2022-07-25T18:17:50.958Z,11.23
2022-07-25T18:20:17.935Z,11.57
2022-07-25T18:22:45.386Z,12.70
2022-07-25T18:25:13.997Z,11.37
2022-07-25T18:27:42.333Z,10.80
2022-07-25T18:30:10.701Z,11.80
2022-07-25T18:32:38.609Z,11.53
2022-07-25T18:35:07.809Z,11.60
2022-07-25T18:37:35.409Z,10.17
2022-07-25T18:40:02.218Z,11.03
2022-07-25T18:42:30.072Z,11.70
2022-07-25T18:44:57.281Z,10.77
2022-07-25T18:47:32.218Z,12.03
2022-07-25T18:49:59.588Z,11.43
2022-07-25T18:52:26.550Z,11.10
2022-07-25T18:54:53.504Z,11.50
2022-07-25T18:57:20.487Z,13.67
2022-07-25T18:59:48.005Z,12.63
2022-07-25T19:02:14.825Z,11.50
2022-07-25T19:04:41.660Z,12.00
2022-07-25T19:07:09.182Z,12.10
2022-07-25T19:09:36.017Z,13.47
2022-07-25T19:12:02.963Z,13.27
2022-07-25T19:14:30.774Z,11.90
2022-07-25T19:16:58.843Z,12.23
2022-07-25T19:19:26.859Z,11.57
2022-07-25T19:21:53.695Z,12.23
2022-07-25T19:24:21.094Z,11.13
2022-07-25T19:26:49.035Z,10.93
2022-07-25T19:29:16.721Z,11.77
2022-07-25T19:31:44.596Z,11.00
2022-07-25T19:34:11.895Z,11.37
2022-07-25T19:36:38.931Z,10.80
2022-07-25T19:39:06.310Z,11.83
2022-07-25T19:41:33.524Z,11.93
2022-07-25T19:44:00.311Z,12.03
2022-07-25T19:46:31.038Z,11.83
2022-07-25T19:48:58.340Z,10.57
2022-07-25T19:51:25.466Z,11.77
2022-07-25T19:53:52.415Z,10.50
2022-07-25T19:56:19.680Z,10.90
2022-07-25T19:58:46.964Z,10.33
2022-07-25T20:01:13.854Z,12.07
2022-07-25T20:03:41.201Z,11.13
2022-07-25T20:06:08.965Z,9.93
2022-07-25T20:08:37.131Z,10.67
2022-07-25T20:11:03.953Z,10.10
2022-07-25T20:13:30.799Z,11.23
2022-07-25T20:15:58.677Z,10.13
2022-07-25T20:18:25.654Z,10.10
2022-07-25T20:20:52.808Z,10.93
2022-07-25T20:23:19.607Z,12.03
2022-07-25T20:25:46.358Z,9.63
2022-07-25T20:28:13.194Z,10.10
2022-07-25T20:30:40.338Z,10.00
2022-07-25T20:33:09.590Z,10.47
2022-07-25T20:35:38.126Z,10.80
2022-07-25T20:38:08.978Z,10.40
2022-07-25T20:40:42.899Z,10.80
2022-07-25T20:43:13.553Z,10.70
2022-07-25T20:45:40.398Z,10.40
2022-07-25T20:48:07.275Z,10.10
2022-07-25T20:50:36.725Z,11.50
2022-07-25T20:53:04.454Z,10.87
2022-07-25T20:55:31.417Z,10.77
2022-07-25T20:57:58.664Z,10.90
2022-07-25T21:00:27.623Z,10.00
2022-07-25T21:02:55.125Z,9.77
2022-07-25T21:05:22.495Z,10.87
2022-07-25T21:07:49.425Z,10.03
2022-07-25T21:10:16.434Z,12.23
2022-07-25T21:12:45.213Z,10.50
2022-07-25T21:15:13.027Z,11.30
2022-07-25T21:17:40.083Z,11.30
2022-07-25T21:20:08.711Z,11.17
2022-07-25T21:22:35.445Z,10.90
2022-07-25T21:25:02.190Z,11.13
2022-07-25T21:27:29.034Z,12.10
2022-07-25T21:29:55.864Z,10.93
2022-07-25T21:32:23.490Z,10.97
2022-07-25T21:34:50.410Z,10.60
2022-07-25T21:37:17.343Z,11.33
2022-07-25T21:39:44.377Z,10.80
2022-07-25T21:42:11.709Z,12.33
2022-07-25T21:44:39.439Z,11.77
2022-07-25T21:47:06.852Z,11.90
2022-07-25T21:49:52.424Z,10.07
2022-07-25T21:52:19.887Z,12.57
2022-07-25T21:54:57.161Z,11.23
2022-07-25T21:57:23.866Z,11.57
2022-07-25T21:59:50.828Z,11.87
2022-07-25T22:02:18.411Z,10.93
2022-07-25T22:04:45.196Z,13.93
2022-07-25T22:07:11.940Z,12.17
2022-07-25T22:09:38.682Z,12.07
2022-07-25T22:12:05.716Z,12.40
2022-07-25T22:14:32.686Z,11.37
2022-07-25T22:16:59.596Z,10.50
2022-07-25T22:19:26.465Z,11.40
2022-07-25T22:21:53.420Z,12.07
2022-07-25T22:24:20.292Z,12.93
2022-07-25T22:26:47.034Z,11.10
2022-07-25T22:29:13.783Z,10.90
2022-07-25T22:31:40.632Z,11.60
2022-07-25T22:34:07.554Z,11.13
2022-07-25T22:36:34.373Z,12.07
2022-07-25T22:39:01.176Z,11.03
2022-07-25T22:41:27.958Z,10.93
2022-07-25T22:43:57.278Z,10.73
2022-07-25T22:46:28.459Z,11.30
2022-07-25T22:48:55.776Z,11.77
2022-07-25T22:51:23.886Z,11.23
2022-07-25T22:53:51.053Z,11.67
2022-07-25T22:56:18.263Z,10.63
2022-07-25T22:58:45.696Z,12.00
2022-07-25T23:01:15.928Z,11.70
2022-07-25T23:03:42.686Z,10.60
2022-07-25T23:06:09.849Z,10.47
2022-07-25T23:08:36.958Z,11.17
2022-07-25T23:11:06.065Z,11.07
2022-07-25T23:13:34.225Z,10.77
2022-07-25T23:16:01.850Z,11.23
2022-07-25T23:18:30.604Z,10.90
2022-07-25T23:20:57.618Z,11.10
2022-07-25T23:23:24.453Z,11.50
2022-07-25T23:25:51.831Z,11.23
2022-07-25T23:28:18.571Z,10.00
2022-07-25T23:30:45.337Z,10.93
2022-07-25T23:33:12.090Z,11.30
2022-07-25T23:35:39.001Z,10.00
2022-07-25T23:38:05.765Z,11.57
2022-07-25T23:40:32.719Z,10.70
2022-07-25T23:42:59.562Z,10.60
2022-07-25T23:45:27.842Z,10.37
2022-07-25T23:47:55.896Z,12.00
2022-07-25T23:50:23.770Z,11.73
2022-07-25T23:52:50.956Z,11.73
2022-07-25T23:55:17.773Z,10.00
2022-07-25T23:57:44.530Z,10.30
